createdAt,value
2018-10-16T00:02:12.589Z,21.70
2018-10-16T00:04:40.714Z,21.77
2018-10-16T00:07:08.845Z,22.27
2018-10-16T00:09:36.986Z,20.97
2018-10-16T00:12:06.254Z,24.57
2018-10-16T00:14:35.095Z,24.43
2018-10-16T00:17:04.143Z,24.77
2018-10-16T00:19:33.154Z,24.40
2018-10-16T00:22:01.462Z,23.90
2018-10-16T00:24:29.598Z,22.37
2018-10-16T00:26:57.725Z,24.10
2018-10-16T00:29:25.908Z,23.93
2018-10-16T00:31:54.026Z,23.40
2018-10-16T00:34:22.191Z,22.33
2018-10-16T00:36:50.308Z,22.03
2018-10-16T00:39:18.436Z,22.77
2018-10-16T00:41:51.939Z,23.43
2018-10-16T00:44:20.051Z,24.60
2018-10-16T00:46:48.179Z,22.40
2018-10-16T00:49:16.342Z,22.67
2018-10-16T00:51:44.432Z,23.37
2018-10-16T00:54:14.079Z,23.03
2018-10-16T00:56:42.205Z,25.87
2018-10-16T00:59:10.356Z,24.77
2018-10-16T01:01:38.518Z,24.50
2018-10-16T01:04:07.558Z,27.43
2018-10-16T01:06:36.446Z,28.27
2018-10-16T01:09:10.180Z,29.47
2018-10-16T01:11:38.731Z,30.40
2018-10-16T01:14:06.888Z,30.27
2018-10-16T01:16:35.742Z,28.93
2018-10-16T01:19:04.000Z,26.93
2018-10-16T01:21:32.901Z,26.43
2018-10-16T01:24:01.350Z,23.40
2018-10-16T01:26:29.485Z,24.03
2018-10-16T01:28:57.586Z,23.10
2018-10-16T01:31:26.320Z,23.00
2018-10-16T01:33:54.455Z,22.83
2018-10-16T01:36:22.538Z,27.33
2018-10-16T01:38:50.843Z,26.57
2018-10-16T01:41:18.984Z,24.57
2018-10-16T01:43:47.116Z,23.67
2018-10-16T01:46:15.238Z,24.13
2018-10-16T01:48:43.358Z,24.57
2018-10-16T01:51:11.491Z,23.07
2018-10-16T01:53:39.609Z,28.63
2018-10-16T01:56:07.730Z,33.53
2018-10-16T01:58:35.833Z,33.57
2018-10-16T02:01:03.990Z,33.77
2018-10-16T02:03:32.109Z,26.30
2018-10-16T02:06:00.223Z,27.97
2018-10-16T02:08:28.385Z,28.23
2018-10-16T02:10:56.527Z,28.77
2018-10-16T02:13:24.654Z,28.50
2018-10-16T02:15:52.786Z,28.03
2018-10-16T02:18:20.926Z,28.10
2018-10-16T02:20:49.053Z,26.67
2018-10-16T02:23:17.168Z,24.63
2018-10-16T02:25:45.305Z,24.17
2018-10-16T02:28:13.439Z,24.10
2018-10-16T02:30:41.561Z,26.93
2018-10-16T02:33:09.665Z,26.47
2018-10-16T02:35:38.366Z,26.10
2018-10-16T02:38:06.492Z,26.30
2018-10-16T02:40:34.626Z,26.00
2018-10-16T02:43:02.821Z,24.20
2018-10-16T02:45:30.941Z,24.30
2018-10-16T02:47:59.081Z,25.53
2018-10-16T02:50:27.212Z,26.07
2018-10-16T02:52:55.329Z,24.37
2018-10-16T02:55:23.426Z,24.43
2018-10-16T02:57:51.593Z,23.93
2018-10-16T03:00:19.737Z,24.20
2018-10-16T03:02:48.063Z,24.93
2018-10-16T03:05:16.154Z,25.93
2018-10-16T03:07:44.262Z,26.40
2018-10-16T03:10:13.282Z,27.00
2018-10-16T03:12:41.447Z,28.77
2018-10-16T03:15:11.786Z,29.87
2018-10-16T03:17:40.113Z,27.03
2018-10-16T03:20:08.899Z,25.60
2018-10-16T03:22:37.214Z,26.37
2018-10-16T03:25:06.555Z,26.90
2018-10-16T03:27:34.680Z,25.17
2018-10-16T03:30:02.817Z,25.27
2018-10-16T03:32:30.930Z,25.63
2018-10-16T03:34:59.042Z,25.03
2018-10-16T03:37:27.204Z,25.60
2018-10-16T03:39:55.310Z,30.00
2018-10-16T03:42:23.419Z,29.73
2018-10-16T03:44:51.541Z,32.87
2018-10-16T03:47:19.687Z,33.83
2018-10-16T03:49:47.806Z,37.20
2018-10-16T03:52:15.946Z,32.10
2018-10-16T03:54:44.065Z,31.10
2018-10-16T03:57:12.248Z,30.20
2018-10-16T03:59:40.370Z,35.57
2018-10-16T04:02:08.508Z,36.30
2018-10-16T04:04:36.616Z,36.23
2018-10-16T04:07:05.056Z,30.97
2018-10-16T04:09:33.201Z,33.53
2018-10-16T04:12:01.356Z,36.00
2018-10-16T04:14:29.498Z,37.57
2018-10-16T04:16:57.613Z,34.77
2018-10-16T04:19:25.720Z,35.87
2018-10-16T04:21:53.814Z,32.50
2018-10-16T04:24:21.888Z,32.70
2018-10-16T04:26:50.556Z,35.23
2018-10-16T04:29:18.750Z,35.60
2018-10-16T04:31:46.794Z,32.70
2018-10-16T04:34:14.898Z,31.40
2018-10-16T04:36:42.996Z,32.30
2018-10-16T04:39:12.753Z,31.97
2018-10-16T04:41:40.936Z,29.77
2018-10-16T04:44:09.220Z,31.03
2018-10-16T04:46:37.354Z,30.93
2018-10-16T04:49:06.004Z,31.50
2018-10-16T04:51:35.064Z,30.80
2018-10-16T04:54:03.211Z,33.47
2018-10-16T04:56:31.465Z,37.80
2018-10-16T04:58:59.615Z,38.10
2018-10-16T05:01:27.717Z,40.57
2018-10-16T05:03:55.819Z,39.87
2018-10-16T05:06:23.907Z,34.17
2018-10-16T05:08:52.076Z,25.23
2018-10-16T05:11:20.189Z,26.07
2018-10-16T05:13:48.630Z,35.43
2018-10-16T05:16:16.788Z,43.63
2018-10-16T05:18:45.006Z,40.90
2018-10-16T05:21:13.090Z,42.30
2018-10-16T05:23:41.169Z,34.40
2018-10-16T05:26:09.244Z,38.87
2018-10-16T05:28:37.405Z,45.60
2018-10-16T05:31:13.190Z,47.87
2018-10-16T05:40:28.643Z,42.30
2018-10-16T05:42:56.817Z,35.70
2018-10-16T05:58:53.840Z,31.20
2018-10-16T06:01:22.065Z,29.60
2018-10-16T06:03:50.772Z,32.50
2018-10-16T06:11:22.697Z,33.00
2018-10-16T06:13:50.822Z,25.23
2018-10-16T06:16:19.994Z,23.13
2018-10-16T06:18:48.173Z,21.60
2018-10-16T06:21:16.316Z,19.77
2018-10-16T06:23:44.440Z,19.83
2018-10-16T06:26:12.546Z,17.57
2018-10-16T06:28:40.689Z,17.10
2018-10-16T06:31:08.794Z,19.43
2018-10-16T06:33:36.870Z,18.87
2018-10-16T06:36:05.110Z,18.07
2018-10-16T06:38:33.242Z,18.27
2018-10-16T06:41:01.514Z,18.37
2018-10-16T06:43:29.512Z,18.13
2018-10-16T06:45:58.158Z,18.10
2018-10-16T06:48:26.511Z,18.50
2018-10-16T06:50:54.428Z,16.47
2018-10-16T06:53:22.626Z,15.97
2018-10-16T06:55:50.721Z,17.50
2018-10-16T06:58:18.896Z,17.10
2018-10-16T07:00:46.985Z,18.13
2018-10-16T07:03:15.077Z,18.47
2018-10-16T07:05:43.416Z,16.90
2018-10-16T07:08:11.560Z,17.23
2018-10-16T07:10:39.678Z,18.50
2018-10-16T07:13:07.831Z,17.82
2018-10-16T07:15:35.993Z,17.35
2018-10-16T07:18:04.427Z,17.42
2018-10-16T07:20:32.602Z,17.48
2018-10-16T07:23:00.776Z,18.87
2018-10-16T07:25:28.896Z,17.77
2018-10-16T07:27:57.469Z,17.75
2018-10-16T07:30:25.601Z,16.93
2018-10-16T07:32:54.017Z,16.77
2018-10-16T07:35:22.123Z,16.70
2018-10-16T07:37:50.296Z,17.67
2018-10-16T07:40:18.756Z,18.20
2018-10-16T07:42:46.874Z,17.55
2018-10-16T07:45:14.995Z,16.32
2018-10-16T07:47:43.114Z,17.00
2018-10-16T07:50:11.899Z,16.55
2018-10-16T07:52:40.041Z,16.02
2018-10-16T07:55:09.905Z,17.35
2018-10-16T07:57:38.091Z,16.35
2018-10-16T08:00:07.415Z,17.42
2018-10-16T08:02:35.648Z,16.05
2018-10-16T08:05:03.782Z,17.75
2018-10-16T08:07:31.865Z,17.37
2018-10-16T08:10:00.060Z,16.87
2018-10-16T08:12:28.171Z,16.77
2018-10-16T08:14:56.326Z,15.30
2018-10-16T08:17:24.614Z,15.58
2018-10-16T08:19:52.682Z,16.23
2018-10-16T08:22:21.195Z,15.43
2018-10-16T08:24:49.737Z,16.17
2018-10-16T08:27:17.860Z,15.72
2018-10-16T08:29:46.046Z,25.08
2018-10-16T08:32:14.177Z,17.35
2018-10-16T08:34:42.298Z,17.07
2018-10-16T08:37:11.646Z,17.67
2018-10-16T08:39:41.873Z,15.30
2018-10-16T08:43:23.885Z,15.90
2018-10-16T08:46:03.314Z,16.15
2018-10-16T08:48:43.418Z,16.05
2018-10-16T08:51:23.028Z,16.35
2018-10-16T08:53:51.312Z,15.08
2018-10-16T08:56:19.782Z,16.02
2018-10-16T08:58:48.174Z,15.03
2018-10-16T09:01:16.357Z,16.05
2018-10-16T09:03:44.544Z,16.67
2018-10-16T09:06:12.688Z,14.85
2018-10-16T09:08:40.807Z,14.85
2018-10-16T09:11:08.976Z,14.75
2018-10-16T09:13:37.129Z,14.50
2018-10-16T09:16:06.035Z,14.87
2018-10-16T09:18:34.221Z,14.30
2018-10-16T09:21:02.392Z,14.45
2018-10-16T09:23:30.547Z,13.58
2018-10-16T09:28:51.331Z,13.98
2018-10-16T09:31:19.454Z,13.18
2018-10-16T09:33:47.608Z,13.18
2018-10-16T09:36:15.734Z,12.80
2018-10-16T09:38:43.909Z,13.90
2018-10-16T09:41:12.042Z,13.60
2018-10-16T09:43:40.226Z,14.15
2018-10-16T09:46:08.393Z,12.95
2018-10-16T09:48:36.608Z,13.22
2018-10-16T09:51:04.927Z,12.50
2018-10-16T09:53:33.173Z,13.95
2018-10-16T09:56:01.345Z,13.72
2018-10-16T09:58:29.488Z,13.60
2018-10-16T10:01:03.296Z,14.15
2018-10-16T10:03:31.415Z,13.43
2018-10-16T10:05:59.545Z,14.43
2018-10-16T10:08:27.756Z,15.05
2018-10-16T10:10:56.509Z,14.58
2018-10-16T10:13:24.699Z,13.95
2018-10-16T10:15:52.895Z,13.78
2018-10-16T10:18:21.052Z,13.43
2018-10-16T10:20:49.306Z,13.83
2018-10-16T10:23:17.562Z,14.05
2018-10-16T10:25:45.629Z,12.23
2018-10-16T10:28:13.794Z,12.90
2018-10-16T10:30:41.959Z,13.45
2018-10-16T10:33:10.140Z,13.20
2018-10-16T10:35:38.371Z,12.75
2018-10-16T10:38:06.416Z,12.63
2018-10-16T10:40:34.749Z,12.30
2018-10-16T10:43:02.984Z,13.03
2018-10-16T10:45:31.122Z,13.50
2018-10-16T10:47:59.352Z,13.95
2018-10-16T10:50:27.578Z,13.95
2018-10-16T10:52:55.619Z,13.58
2018-10-16T10:55:23.768Z,15.00
2018-10-16T10:57:51.919Z,14.10
2018-10-16T11:00:20.049Z,14.85
2018-10-16T11:02:49.045Z,16.90
2018-10-16T11:05:17.184Z,15.48
2018-10-16T11:07:45.359Z,15.30
2018-10-16T11:10:14.737Z,15.10
2018-10-16T11:12:43.811Z,15.05
2018-10-16T11:15:12.162Z,15.72
2018-10-16T11:17:40.565Z,15.85
2018-10-16T11:20:10.443Z,15.98
2018-10-16T11:22:38.697Z,14.58
2018-10-16T11:25:07.721Z,14.80
2018-10-16T11:27:35.818Z,15.35
2018-10-16T11:30:04.974Z,15.23
2018-10-16T11:32:33.137Z,17.60
2018-10-16T11:35:01.266Z,15.55
2018-10-16T11:37:29.474Z,17.00
2018-10-16T11:39:57.618Z,15.45
2018-10-16T11:42:25.733Z,15.08
2018-10-16T11:44:53.958Z,15.90
2018-10-16T11:47:22.120Z,16.52
2018-10-16T11:49:50.271Z,15.43
2018-10-16T11:52:18.485Z,16.85
2018-10-16T11:54:47.165Z,16.20
2018-10-16T11:57:15.302Z,18.48
2018-10-16T11:59:43.492Z,17.35
2018-10-16T12:02:12.669Z,16.75
2018-10-16T12:04:40.713Z,17.07
2018-10-16T12:07:08.975Z,16.23
2018-10-16T12:09:37.072Z,15.68
2018-10-16T12:12:05.282Z,15.80
2018-10-16T12:14:33.549Z,16.20
2018-10-16T12:17:05.732Z,16.52
2018-10-16T12:19:37.522Z,17.02
2018-10-16T12:22:05.885Z,17.30
2018-10-16T12:24:34.042Z,15.93
2018-10-16T12:27:02.178Z,16.82
2018-10-16T12:29:30.385Z,16.25
2018-10-16T12:31:58.602Z,17.02
2018-10-16T12:34:26.722Z,18.05
2018-10-16T12:36:55.001Z,17.60
2018-10-16T12:39:23.103Z,18.48
2018-10-16T12:41:51.289Z,17.02
2018-10-16T12:44:19.389Z,17.92
2018-10-16T12:46:47.617Z,18.05
2018-10-16T12:49:15.737Z,17.17
2018-10-16T12:51:43.863Z,16.90
2018-10-16T12:54:12.262Z,16.42
2018-10-16T12:56:40.561Z,15.65
2018-10-16T12:59:08.789Z,16.67
2018-10-16T13:01:36.812Z,16.87
2018-10-16T13:04:05.296Z,16.37
2018-10-16T13:06:33.409Z,17.62
2018-10-16T13:09:01.545Z,17.52
2018-10-16T13:11:29.677Z,16.12
2018-10-16T13:13:57.834Z,16.40
2018-10-16T13:16:25.993Z,16.12
2018-10-16T13:18:54.191Z,17.40
2018-10-16T13:21:22.330Z,15.40
2018-10-16T13:23:50.508Z,14.35
2018-10-16T13:26:18.633Z,16.05
2018-10-16T13:28:46.783Z,16.05
2018-10-16T13:31:14.968Z,16.25
2018-10-16T13:33:43.081Z,16.85
2018-10-16T13:36:11.230Z,17.00
2018-10-16T13:38:39.379Z,17.15
2018-10-16T13:41:07.519Z,16.70
2018-10-16T13:43:35.653Z,16.05
2018-10-16T13:46:04.095Z,16.30
2018-10-16T13:48:32.182Z,16.25
2018-10-16T13:51:00.353Z,16.82
2018-10-16T13:53:28.548Z,17.17
2018-10-16T13:55:56.707Z,16.32
2018-10-16T13:58:24.869Z,16.00
2018-10-16T14:03:45.605Z,15.45
2018-10-16T14:06:13.790Z,14.87
2018-10-16T14:08:41.903Z,15.53
2018-10-16T14:11:10.032Z,14.23
2018-10-16T14:13:38.177Z,15.55
2018-10-16T14:16:06.447Z,12.95
2018-10-16T14:18:34.548Z,14.18
2018-10-16T14:21:02.731Z,14.15
2018-10-16T14:23:30.930Z,14.25
2018-10-16T14:25:59.089Z,13.78
2018-10-16T14:28:27.234Z,14.15
2018-10-16T14:30:55.414Z,12.88
2018-10-16T14:33:23.799Z,13.32
2018-10-16T14:35:52.750Z,12.75
2018-10-16T14:38:21.691Z,12.28
2018-10-16T14:40:49.878Z,11.43
2018-10-16T14:43:18.071Z,12.10
2018-10-16T14:45:46.262Z,12.63
2018-10-16T14:48:14.478Z,13.03
2018-10-16T14:50:43.355Z,11.75
2018-10-16T14:53:11.889Z,13.28
2018-10-16T14:55:40.017Z,13.35
2018-10-16T14:58:08.218Z,12.05
2018-10-16T15:00:36.310Z,12.00
2018-10-16T15:03:04.679Z,11.22
2018-10-16T15:05:32.783Z,12.28
2018-10-16T15:08:00.994Z,11.97
2018-10-16T15:10:29.218Z,11.88
2018-10-16T15:12:57.291Z,11.93
2018-10-16T15:15:25.420Z,11.08
2018-10-16T15:17:53.601Z,11.12
2018-10-16T15:20:21.738Z,11.88
2018-10-16T15:22:49.936Z,11.43
2018-10-16T15:25:18.023Z,11.83
2018-10-16T15:27:46.146Z,12.50
2018-10-16T15:30:14.302Z,12.07
2018-10-16T15:32:42.411Z,11.68
2018-10-16T15:35:11.542Z,12.55
2018-10-16T15:37:39.819Z,13.70
2018-10-16T15:40:10.243Z,11.57
2018-10-16T15:42:38.286Z,12.45
2018-10-16T15:45:07.910Z,13.35
2018-10-16T15:47:36.031Z,13.13
2018-10-16T15:50:04.466Z,12.65
2018-10-16T15:52:32.590Z,13.72
2018-10-16T15:55:00.750Z,13.07
2018-10-16T15:57:28.933Z,13.75
2018-10-16T15:59:57.139Z,13.03
2018-10-16T16:02:25.322Z,12.83
2018-10-16T16:04:53.427Z,13.03
2018-10-16T16:07:21.590Z,13.05
2018-10-16T16:09:50.323Z,14.53
2018-10-16T16:12:18.514Z,15.20
2018-10-16T16:14:46.658Z,15.57
2018-10-16T16:17:14.758Z,15.10
2018-10-16T16:19:43.858Z,13.67
2018-10-16T16:22:12.065Z,13.83
2018-10-16T16:24:40.127Z,14.77
2018-10-16T16:27:08.246Z,14.57
2018-10-16T16:29:36.327Z,13.73
2018-10-16T16:32:04.665Z,15.87
2018-10-16T16:34:32.700Z,16.53
2018-10-16T16:37:00.792Z,16.23
2018-10-16T16:39:28.975Z,16.70
2018-10-16T16:41:56.997Z,16.97
2018-10-16T16:44:25.045Z,16.30
2018-10-16T16:46:53.774Z,15.77
2018-10-16T16:49:21.820Z,15.83
2018-10-16T16:51:49.930Z,16.60
2018-10-16T16:54:18.282Z,18.90
2018-10-16T16:56:47.043Z,18.13
2018-10-16T16:59:15.089Z,19.20
2018-10-16T17:01:43.172Z,19.03
2018-10-16T17:04:11.322Z,16.40
2018-10-16T17:06:39.332Z,18.93
2018-10-16T17:09:09.293Z,21.80
2018-10-16T17:11:37.362Z,20.20
2018-10-16T17:14:05.561Z,18.63
2018-10-16T17:16:33.678Z,18.93
2018-10-16T17:19:01.893Z,18.53
2018-10-16T17:24:24.192Z,19.97
2018-10-16T17:26:52.506Z,21.33
2018-10-16T17:29:20.524Z,25.97
2018-10-16T17:31:48.703Z,26.07
2018-10-16T17:34:17.241Z,25.13
2018-10-16T17:36:45.302Z,23.60
2018-10-16T17:39:13.513Z,23.30
2018-10-16T17:41:41.714Z,23.63
2018-10-16T17:44:10.089Z,22.77
2018-10-16T17:46:38.241Z,22.80
2018-10-16T17:49:06.558Z,21.93
2018-10-16T17:51:35.049Z,22.47
2018-10-16T17:54:03.191Z,22.57
2018-10-16T17:56:31.375Z,23.57
2018-10-16T17:58:59.654Z,24.83
2018-10-16T18:01:27.758Z,24.30
2018-10-16T18:03:55.857Z,25.60
2018-10-16T18:06:23.925Z,25.77
2018-10-16T18:08:52.085Z,23.27
2018-10-16T18:11:20.165Z,23.90
2018-10-16T18:13:48.384Z,26.73
2018-10-16T18:16:16.460Z,27.37
2018-10-16T18:18:44.534Z,25.47
2018-10-16T18:21:12.736Z,24.13
2018-10-16T18:23:41.735Z,26.83
2018-10-16T18:26:09.798Z,27.03
2018-10-16T18:28:37.915Z,25.83
2018-10-16T18:31:06.245Z,29.80
2018-10-16T18:33:34.321Z,27.03
2018-10-16T18:36:02.393Z,26.73
2018-10-16T18:38:30.497Z,25.73
2018-10-16T18:40:58.613Z,25.37
2018-10-16T18:43:27.361Z,26.47
2018-10-16T18:45:55.439Z,28.73
2018-10-16T18:48:23.553Z,29.83
2018-10-16T18:50:51.654Z,30.27
2018-10-16T18:53:19.735Z,27.40
2018-10-16T18:55:47.820Z,27.63
2018-10-16T18:58:15.904Z,26.07
2018-10-16T19:00:44.023Z,27.63
2018-10-16T19:03:12.227Z,26.80
2018-10-16T19:05:40.241Z,27.33
2018-10-16T19:08:08.301Z,26.83
2018-10-16T19:10:36.400Z,25.60
2018-10-16T19:13:04.538Z,25.47
2018-10-16T19:15:32.609Z,25.67
2018-10-16T19:18:00.745Z,23.60
2018-10-16T19:20:28.804Z,23.10
2018-10-16T19:22:56.877Z,23.40
2018-10-16T19:25:24.945Z,27.20
2018-10-16T19:27:53.050Z,28.03
2018-10-16T19:30:21.118Z,28.73
2018-10-16T19:32:49.206Z,31.50
2018-10-16T19:35:17.293Z,32.27
2018-10-16T19:37:45.432Z,32.53
2018-10-16T19:40:13.439Z,32.87
2018-10-16T19:42:41.532Z,29.80
2018-10-16T19:45:10.245Z,27.93
2018-10-16T19:47:38.418Z,26.53
2018-10-16T19:50:06.947Z,27.50
2018-10-16T19:52:35.064Z,26.73
2018-10-16T19:55:03.169Z,25.23
2018-10-16T19:57:31.222Z,26.73
2018-10-16T19:59:59.437Z,27.67
2018-10-16T20:02:27.525Z,28.13
2018-10-16T20:04:55.604Z,31.17
2018-10-16T20:07:23.693Z,38.13
2018-10-16T20:09:51.985Z,39.00
2018-10-16T20:12:20.072Z,39.03
2018-10-16T20:14:48.150Z,38.90
2018-10-16T20:17:16.275Z,38.30
2018-10-16T20:19:44.604Z,38.27
2018-10-16T20:22:12.549Z,35.90
2018-10-16T20:24:40.690Z,30.73
2018-10-16T20:27:08.725Z,29.50
2018-10-16T20:29:36.869Z,28.63
2018-10-16T20:32:05.024Z,29.67
2018-10-16T20:34:33.244Z,32.20
2018-10-16T20:37:01.305Z,31.07
2018-10-16T20:39:29.431Z,29.67
2018-10-16T20:41:57.554Z,30.43
2018-10-16T20:44:25.557Z,31.27
2018-10-16T20:46:53.652Z,31.03
2018-10-16T20:49:21.730Z,30.73
2018-10-16T20:51:49.802Z,31.53
2018-10-16T20:54:17.931Z,35.07
2018-10-16T20:56:46.355Z,33.47
2018-10-16T20:59:14.445Z,32.07
2018-10-16T21:01:42.553Z,31.53
2018-10-16T21:04:10.715Z,31.67
2018-10-16T21:06:39.016Z,30.23
2018-10-16T21:09:07.149Z,27.90
2018-10-16T21:11:35.264Z,27.50
2018-10-16T21:14:03.564Z,27.03
2018-10-16T21:16:31.978Z,25.63
2018-10-16T21:19:00.140Z,28.37
2018-10-16T21:21:29.215Z,31.20
2018-10-16T21:23:57.281Z,30.10
2018-10-16T21:26:25.369Z,28.93
2018-10-16T21:28:53.493Z,28.60
2018-10-16T21:31:21.587Z,29.07
2018-10-16T21:33:49.700Z,28.77
2018-10-16T21:36:17.787Z,29.97
2018-10-16T21:38:46.061Z,33.33
2018-10-16T21:41:14.217Z,37.20
2018-10-16T21:43:42.256Z,35.23
2018-10-16T21:46:10.375Z,31.23
2018-10-16T21:48:38.441Z,28.17
2018-10-16T21:51:06.532Z,29.83
2018-10-16T21:53:34.601Z,30.27
2018-10-16T21:56:03.191Z,31.47
2018-10-16T21:58:31.301Z,32.60
2018-10-16T22:01:04.708Z,31.20
2018-10-16T22:03:32.807Z,30.10
2018-10-16T22:06:00.869Z,27.33
2018-10-16T22:08:28.999Z,26.37
2018-10-16T22:10:57.750Z,29.47
2018-10-16T22:13:25.796Z,30.33
2018-10-16T22:15:53.856Z,30.20
2018-10-16T22:18:21.944Z,27.77
2018-10-16T22:20:50.063Z,25.80
2018-10-16T22:23:18.127Z,25.40
2018-10-16T22:25:46.226Z,24.47
2018-10-16T22:28:14.293Z,21.67
2018-10-16T22:30:42.361Z,21.93
2018-10-16T22:33:10.458Z,23.90
2018-10-16T22:35:38.569Z,24.47
2018-10-16T22:38:07.248Z,25.90
2018-10-16T22:40:35.303Z,27.60
2018-10-16T22:43:03.443Z,31.50
2018-10-16T22:45:31.467Z,27.93
2018-10-16T22:47:59.605Z,27.93
2018-10-16T22:50:27.674Z,33.57
2018-10-16T22:52:55.796Z,35.30
2018-10-16T22:55:23.835Z,35.90
2018-10-16T22:57:51.913Z,35.63
2018-10-16T23:00:20.018Z,32.17
2018-10-16T23:02:48.561Z,31.67
2018-10-16T23:05:16.718Z,31.13
2018-10-16T23:07:45.948Z,30.13
2018-10-16T23:10:14.341Z,30.10
2018-10-16T23:12:42.480Z,32.63
2018-10-16T23:15:11.452Z,29.37
2018-10-16T23:17:39.852Z,28.93
2018-10-16T23:20:08.945Z,25.90
2018-10-16T23:22:37.018Z,28.23
2018-10-16T23:25:05.215Z,31.10
2018-10-16T23:27:33.239Z,27.23
2018-10-16T23:30:01.310Z,29.30
2018-10-16T23:32:29.418Z,28.43
2018-10-16T23:34:57.537Z,28.33
2018-10-16T23:37:25.608Z,27.43
2018-10-16T23:39:53.687Z,28.53
2018-10-16T23:42:21.781Z,28.03
2018-10-16T23:44:49.994Z,28.27
2018-10-16T23:47:18.134Z,26.87
2018-10-16T23:49:46.291Z,27.20
2018-10-16T23:52:14.357Z,25.77
2018-10-16T23:54:42.442Z,24.83
2018-10-16T23:57:10.516Z,24.17
2018-10-16T23:59:39.142Z,27.07
